Time;durP1;ratioP1;P1;durP2;ratioP2;P2;SDS_P1;SDS_P2;PMS_P1;PMS_P2;Temp;Humidity;BMP_temperature;BMP_pressure;BME280_temperature;BME280_humidity;BME280_pressure;Samples;Min_cycle;Max_cycle;Signal;HPM_P1;HPM_P2
2024/01/07 00:01:15;;;;;;;15.93;8.00;;;2.80;99.90;;;;;;4966872;28;20393;-51
2024/01/07 00:03:42;;;;;;;17.50;8.60;;;2.70;99.90;;;;;;4961928;28;20027;-54
2024/01/07 00:06:08;;;;;;;17.73;8.13;;;2.80;99.90;;;;;;4960867;28;20031;-54
2024/01/07 00:08:34;;;;;;;17.88;8.90;;;2.70;99.90;;;;;;4964979;28;20362;-54
2024/01/07 00:11:00;;;;;;;17.77;7.95;;;2.70;99.90;;;;;;4962648;28;20038;-51
2024/01/07 00:13:25;;;;;;;18.85;7.88;;;2.70;99.90;;;;;;4967454;28;20022;-51
2024/01/07 00:15:53;;;;;;;19.55;7.68;;;2.70;99.90;;;;;;4966187;28;20050;-56
2024/01/07 00:18:19;;;;;;;13.23;7.20;;;2.70;99.90;;;;;;4969421;28;20283;-55
2024/01/07 00:20:45;;;;;;;18.25;7.38;;;2.80;99.90;;;;;;4966816;28;20497;-54
2024/01/07 00:23:10;;;;;;;16.38;8.00;;;2.70;99.90;;;;;;4966041;28;20038;-54
2024/01/07 00:25:36;;;;;;;15.80;7.93;;;2.70;99.90;;;;;;4960743;28;20085;-54
2024/01/07 00:28:01;;;;;;;13.90;6.85;;;2.70;99.90;;;;;;4965041;28;20405;-56
2024/01/07 00:30:27;;;;;;;14.70;6.85;;;2.70;99.90;;;;;;4969320;28;20026;-52
2024/01/07 00:32:53;;;;;;;16.08;7.30;;;2.70;99.90;;;;;;4967471;28;20031;-54
2024/01/07 00:35:18;;;;;;;13.18;6.53;;;2.70;99.90;;;;;;4969564;28;20034;-51
2024/01/07 00:37:44;;;;;;;15.93;7.07;;;2.70;99.90;;;;;;4963982;28;20393;-56
2024/01/07 00:40:10;;;;;;;12.50;6.80;;;2.70;99.90;;;;;;4961384;28;20043;-52
2024/01/07 00:42:36;;;;;;;16.15;9.13;;;2.70;99.90;;;;;;4961091;28;20030;-51
2024/01/07 00:45:02;;;;;;;17.20;6.97;;;2.70;99.90;;;;;;4967825;28;20026;-57
2024/01/07 00:47:28;;;;;;;18.63;6.82;;;2.70;99.90;;;;;;4969447;28;20037;-50
2024/01/07 00:49:54;;;;;;;16.08;8.02;;;2.70;99.90;;;;;;4970053;28;20395;-51
2024/01/07 00:52:20;;;;;;;15.63;7.22;;;2.70;99.90;;;;;;4966537;28;20031;-50
2024/01/07 00:54:46;;;;;;;14.32;6.38;;;2.70;99.90;;;;;;4964312;28;20026;-52
2024/01/07 00:57:15;;;;;;;15.00;6.65;;;2.70;99.90;;;;;;4964679;28;20023;-52
2024/01/07 00:59:40;;;;;;;12.63;6.10;;;2.80;99.90;;;;;;4965148;28;20027;-52
2024/01/07 01:02:06;;;;;;;12.35;6.18;;;2.70;99.90;;;;;;4967916;28;20397;-53
2024/01/07 01:04:31;;;;;;;17.25;7.57;;;2.70;99.90;;;;;;4964844;28;20485;-54
2024/01/07 01:06:57;;;;;;;15.13;6.97;;;2.70;99.90;;;;;;4961304;28;20035;-55
2024/01/07 01:09:23;;;;;;;13.07;6.03;;;2.70;99.90;;;;;;4962973;28;20027;-54
2024/01/07 01:11:49;;;;;;;13.27;6.22;;;2.80;99.90;;;;;;4959304;28;20023;-53
2024/01/07 01:14:15;;;;;;;13.32;5.75;;;2.70;99.90;;;;;;4964102;28;20027;-55
2024/01/07 01:16:41;;;;;;;15.38;7.35;;;2.80;99.90;;;;;;4965627;28;20105;-50
2024/01/07 01:19:06;;;;;;;12.35;6.20;;;2.80;99.90;;;;;;4962449;28;20429;-57
2024/01/07 01:21:32;;;;;;;16.02;6.47;;;2.80;99.90;;;;;;4962898;28;20029;-54
2024/01/07 01:23:58;;;;;;;10.45;5.50;;;2.80;99.90;;;;;;4964515;28;20027;-53
2024/01/07 01:26:24;;;;;;;11.70;6.05;;;2.70;99.90;;;;;;4966579;28;20023;-51
2024/01/07 01:28:50;;;;;;;10.20;5.28;;;2.70;99.90;;;;;;4964945;28;20027;-55
2024/01/07 01:31:15;;;;;;;13.10;6.38;;;2.80;99.90;;;;;;4952910;28;20085;-54
2024/01/07 01:33:41;;;;;;;11.63;5.32;;;2.70;99.90;;;;;;4968602;28;20054;-55
2024/01/07 01:36:07;;;;;;;11.23;5.35;;;2.70;99.90;;;;;;4971805;28;20037;-55
2024/01/07 01:38:33;;;;;;;12.52;6.35;;;2.70;99.90;;;;;;4972045;28;20035;-55
2024/01/07 01:40:58;;;;;;;13.43;6.38;;;2.80;99.90;;;;;;4970191;28;20035;-53
2024/01/07 01:43:28;;;;;;;11.02;5.53;;;2.80;99.90;;;;;;4972013;28;20038;-52
2024/01/07 01:45:55;;;;;;;13.57;5.65;;;2.70;99.90;;;;;;4972037;28;20034;-55
2024/01/07 01:48:25;;;;;;;14.75;6.25;;;2.70;99.90;;;;;;4968326;28;20393;-51
2024/01/07 01:50:54;;;;;;;11.02;5.40;;;2.80;99.90;;;;;;4970610;28;20046;-53
2024/01/07 01:53:20;;;;;;;12.98;6.43;;;2.80;99.90;;;;;;4975483;28;20037;-55
2024/01/07 01:55:45;;;;;;;12.40;6.05;;;2.70;99.90;;;;;;4961475;28;20102;-53
2024/01/07 01:58:13;;;;;;;11.85;5.65;;;2.70;99.90;;;;;;4961796;28;20031;-56
2024/01/07 02:00:39;;;;;;;10.88;5.43;;;2.70;99.90;;;;;;4975952;28;20065;-56
2024/01/07 02:03:05;;;;;;;12.52;6.32;;;2.70;99.90;;;;;;4974940;28;20037;-58
2024/01/07 02:05:31;;;;;;;14.70;6.70;;;2.80;99.90;;;;;;4956632;28;20043;-52
2024/01/07 02:07:56;;;;;;;14.32;6.93;;;2.70;99.90;;;;;;4971118;28;20054;-53
2024/01/07 02:10:22;;;;;;;10.35;5.82;;;2.70;99.90;;;;;;4974733;28;20090;-56
2024/01/07 02:12:48;;;;;;;9.77;5.78;;;2.80;99.90;;;;;;4964106;28;20055;-55
2024/01/07 02:15:14;;;;;;;11.52;6.45;;;2.80;99.90;;;;;;4966231;28;20027;-54
2024/01/07 02:17:40;;;;;;;12.15;5.80;;;2.80;99.90;;;;;;4970114;28;20039;-54
2024/01/07 02:20:07;;;;;;;12.88;7.05;;;2.80;99.90;;;;;;4955786;29;20431;-53
2024/01/07 02:22:32;;;;;;;11.68;6.38;;;2.80;99.90;;;;;;4962168;28;20437;-53
2024/01/07 02:24:58;;;;;;;10.27;5.72;;;2.80;99.90;;;;;;4958511;28;20026;-51
2024/01/07 02:27:23;;;;;;;14.50;7.43;;;2.80;99.90;;;;;;4968664;28;20034;-53
2024/01/07 02:29:49;;;;;;;11.18;5.78;;;2.80;99.90;;;;;;4974885;28;20457;-54
2024/01/07 02:32:15;;;;;;;12.07;6.00;;;2.70;99.90;;;;;;4973110;28;20054;-52
2024/01/07 02:34:40;;;;;;;10.68;6.15;;;2.70;99.90;;;;;;4955669;29;20031;-52
2024/01/07 02:37:06;;;;;;;12.27;6.15;;;2.70;99.90;;;;;;4955238;29;20114;-53
2024/01/07 02:39:31;;;;;;;16.13;6.63;;;2.70;99.90;;;;;;4955363;29;20034;-55
2024/01/07 02:41:57;;;;;;;11.68;6.15;;;2.70;99.90;;;;;;4971291;28;20035;-53
2024/01/07 02:44:22;;;;;;;16.42;6.60;;;2.70;99.90;;;;;;4974464;28;20435;-53
2024/01/07 02:46:48;;;;;;;8.38;5.50;;;2.70;99.90;;;;;;4964283;28;20038;-54
2024/01/07 02:49:14;;;;;;;12.45;6.60;;;2.70;99.90;;;;;;4955014;29;20042;-56
2024/01/07 02:51:39;;;;;;;15.07;6.65;;;2.70;99.90;;;;;;4954873;28;20034;-54
2024/01/07 02:54:05;;;;;;;13.45;7.20;;;2.70;99.90;;;;;;4971528;28;20029;-52
2024/01/07 02:56:31;;;;;;;11.13;6.18;;;2.70;99.90;;;;;;4974190;28;20091;-53
2024/01/07 02:58:56;;;;;;;12.32;6.50;;;2.70;99.90;;;;;;4974199;28;20031;-55
2024/01/07 03:01:25;;;;;;;13.23;6.80;;;2.70;99.90;;;;;;4974105;28;20535;-52
2024/01/07 03:03:51;;;;;;;13.05;7.10;;;2.70;99.90;;;;;;4966154;28;20553;-55
2024/01/07 03:06:16;;;;;;;12.85;6.53;;;2.70;99.90;;;;;;4954900;29;20111;-53
2024/01/07 03:08:42;;;;;;;13.57;6.47;;;2.70;99.90;;;;;;4954733;29;20086;-51
2024/01/07 03:11:08;;;;;;;15.05;7.10;;;2.70;99.90;;;;;;4957840;28;20027;-53
2024/01/07 03:13:34;;;;;;;11.40;6.95;;;2.70;99.90;;;;;;4974175;28;20033;-53
2024/01/07 03:15:59;;;;;;;12.88;6.30;;;2.70;99.90;;;;;;4966287;28;20515;-52
2024/01/07 03:18:27;;;;;;;14.30;7.03;;;2.70;99.90;;;;;;4958404;28;20030;-54
2024/01/07 03:20:52;;;;;;;12.95;6.63;;;2.70;99.90;;;;;;4973707;28;20512;-51
2024/01/07 03:23:18;;;;;;;13.90;6.28;;;2.70;99.90;;;;;;4973727;28;20109;-53
2024/01/07 03:25:44;;;;;;;12.25;5.75;;;2.70;99.90;;;;;;4973801;28;20031;-53
2024/01/07 03:28:09;;;;;;;10.90;5.80;;;2.70;99.90;;;;;;4967054;28;20046;-56
2024/01/07 03:30:35;;;;;;;14.00;6.82;;;2.70;99.90;;;;;;4954474;29;20034;-51
2024/01/07 03:33:01;;;;;;;10.63;5.53;;;2.70;99.90;;;;;;4962586;28;20392;-52
2024/01/07 03:35:27;;;;;;;12.25;6.57;;;2.70;99.90;;;;;;4973663;28;20035;-52
2024/01/07 03:37:52;;;;;;;13.43;6.43;;;2.70;99.90;;;;;;4969595;28;20086;-55
2024/01/07 03:40:18;;;;;;;12.32;6.03;;;2.70;99.90;;;;;;4954459;28;20031;-54
2024/01/07 03:42:44;;;;;;;13.32;6.50;;;2.70;99.90;;;;;;4968455;28;20063;-55
2024/01/07 03:45:09;;;;;;;15.05;7.43;;;2.60;99.90;;;;;;4973742;28;20042;-52
2024/01/07 03:47:35;;;;;;;11.85;7.07;;;2.60;99.90;;;;;;4973381;28;20557;-51
2024/01/07 03:50:00;;;;;;;12.35;6.97;;;2.60;99.90;;;;;;4973897;28;20034;-54
2024/01/07 03:52:26;;;;;;;15.43;7.53;;;2.50;99.90;;;;;;4973406;28;20121;-51
2024/01/07 03:54:51;;;;;;;18.20;7.97;;;2.60;99.90;;;;;;4973373;28;20093;-57
2024/01/07 03:57:17;;;;;;;15.48;7.38;;;2.60;99.90;;;;;;4973433;28;20373;-56
2024/01/07 03:59:42;;;;;;;16.48;7.40;;;2.60;99.90;;;;;;4973323;28;20120;-53
2024/01/07 04:02:08;;;;;;;14.38;6.70;;;2.50;99.90;;;;;;4965388;28;20042;-56
2024/01/07 04:04:34;;;;;;;17.95;7.55;;;2.50;99.90;;;;;;4968939;28;20396;-51
2024/01/07 04:06:59;;;;;;;12.68;6.45;;;2.50;99.90;;;;;;4973210;28;20105;-52
2024/01/07 04:09:25;;;;;;;16.52;7.75;;;2.50;99.90;;;;;;4969954;28;20038;-54
2024/01/07 04:11:51;;;;;;;13.98;6.43;;;2.50;99.90;;;;;;4953412;28;20102;-60
2024/01/07 04:14:16;;;;;;;15.32;7.32;;;2.50;99.90;;;;;;4960587;28;20026;-55
2024/01/07 04:16:42;;;;;;;15.68;7.25;;;2.40;99.90;;;;;;4960643;28;20027;-57
2024/01/07 04:19:08;;;;;;;17.20;6.93;;;2.40;99.90;;;;;;4966819;28;20027;-55
2024/01/07 04:21:33;;;;;;;19.23;7.55;;;2.30;99.90;;;;;;4972912;28;20592;-52
2024/01/07 04:23:59;;;;;;;16.95;7.38;;;2.30;99.90;;;;;;4972818;28;20487;-51
2024/01/07 04:26:24;;;;;;;16.83;8.52;;;2.30;99.90;;;;;;4966453;28;20034;-55
2024/01/07 04:28:50;;;;;;;15.35;7.95;;;2.30;99.90;;;;;;4967567;28;20491;-52
2024/01/07 04:31:15;;;;;;;18.00;9.18;;;2.30;99.90;;;;;;4970341;28;20027;-57
2024/01/07 04:33:41;;;;;;;20.30;8.32;;;2.30;99.90;;;;;;4966640;28;20028;-55
2024/01/07 04:36:07;;;;;;;17.80;8.90;;;2.30;99.90;;;;;;4970967;28;20030;-57
2024/01/07 04:38:32;;;;;;;22.48;9.73;;;2.30;99.90;;;;;;4972673;28;20034;-56
2024/01/07 04:40:58;;;;;;;23.52;10.00;;;2.30;99.90;;;;;;4961304;28;20031;-52
2024/01/07 04:43:24;;;;;;;21.25;9.63;;;2.30;99.90;;;;;;4953252;29;20102;-55
2024/01/07 04:45:49;;;;;;;23.73;10.50;;;2.30;99.90;;;;;;4953550;29;20119;-54
2024/01/07 04:48:15;;;;;;;23.02;10.18;;;2.20;99.90;;;;;;4953495;29;20104;-51
2024/01/07 04:50:41;;;;;;;24.48;11.43;;;2.20;99.90;;;;;;4953373;29;20090;-55
2024/01/07 04:53:08;;;;;;;27.52;11.35;;;2.20;99.90;;;;;;4953634;28;20105;-55
2024/01/07 04:55:33;;;;;;;23.70;10.48;;;2.20;99.90;;;;;;4953373;28;20392;-54
2024/01/07 04:58:00;;;;;;;23.20;10.27;;;2.10;99.90;;;;;;4963008;28;20121;-51
2024/01/07 05:00:25;;;;;;;22.13;11.45;;;2.20;99.90;;;;;;4972334;28;20035;-52
2024/01/07 05:02:51;;;;;;;27.80;11.40;;;2.20;99.90;;;;;;4972228;28;20095;-51
2024/01/07 05:05:16;;;;;;;24.30;10.60;;;2.10;99.90;;;;;;4972238;28;20042;-54
2024/01/07 05:07:42;;;;;;;25.23;11.77;;;2.20;99.90;;;;;;4972293;28;20066;-54
2024/01/07 05:10:08;;;;;;;27.38;11.68;;;2.10;99.90;;;;;;4972057;28;20059;-53
2024/01/07 05:12:33;;;;;;;26.60;11.43;;;2.00;99.90;;;;;;4972029;28;20031;-51
2024/01/07 05:14:59;;;;;;;32.17;12.48;;;2.10;99.90;;;;;;4972146;28;20035;-55
2024/01/07 05:17:25;;;;;;;25.00;11.38;;;2.00;99.90;;;;;;4972013;28;20031;-51
2024/01/07 05:19:50;;;;;;;24.00;10.73;;;2.00;99.90;;;;;;4972217;28;20085;-55
2024/01/07 05:22:16;;;;;;;23.88;11.02;;;2.10;99.90;;;;;;4972220;28;20031;-52
2024/01/07 05:24:42;;;;;;;28.60;11.45;;;2.10;99.90;;;;;;4974255;28;20370;-51
2024/01/07 05:27:08;;;;;;;28.30;11.40;;;2.10;99.90;;;;;;4976014;28;20440;-54
2024/01/07 05:29:34;;;;;;;23.52;11.15;;;2.10;99.90;;;;;;4975987;28;20033;-55
2024/01/07 05:32:00;;;;;;;28.83;11.95;;;2.10;99.90;;;;;;4975896;28;20019;-53
2024/01/07 05:34:29;;;;;;;32.90;11.85;;;2.10;99.90;;;;;;4964144;28;20066;-54
2024/01/07 05:36:54;;;;;;;25.23;11.52;;;2.10;99.90;;;;;;4956517;28;20038;-52
2024/01/07 05:39:20;;;;;;;31.15;13.27;;;2.10;99.90;;;;;;4956574;28;20489;-52
2024/01/07 05:41:46;;;;;;;28.05;11.90;;;2.10;99.90;;;;;;4970899;28;20478;-56
2024/01/07 05:44:12;;;;;;;29.27;10.95;;;2.10;99.90;;;;;;4975353;28;20097;-51
2024/01/07 05:46:41;;;;;;;26.67;10.95;;;2.00;99.90;;;;;;4975860;28;20041;-51
2024/01/07 05:49:07;;;;;;;28.00;11.48;;;2.00;99.90;;;;;;4975630;28;20105;-54
2024/01/07 05:51:33;;;;;;;24.83;10.63;;;2.10;99.90;;;;;;4975393;28;20403;-56
2024/01/07 05:53:58;;;;;;;19.92;10.15;;;2.10;99.90;;;;;;4960171;28;20102;-54
2024/01/07 05:56:24;;;;;;;31.45;13.55;;;2.10;99.90;;;;;;4975690;28;20390;-51
2024/01/07 05:58:50;;;;;;;25.60;11.77;;;2.10;99.90;;;;;;4975295;28;20027;-51
2024/01/07 06:01:19;;;;;;;24.85;11.82;;;2.00;99.90;;;;;;4975184;28;20030;-53
2024/01/07 06:03:47;;;;;;;23.48;10.52;;;2.00;99.90;;;;;;4969638;28;20082;-53
2024/01/07 06:06:14;;;;;;;23.00;11.23;;;2.10;99.90;;;;;;4975060;28;20062;-53
2024/01/07 06:08:43;;;;;;;24.40;11.73;;;2.10;99.90;;;;;;4975095;28;20027;-55
2024/01/07 06:11:10;;;;;;;25.23;11.82;;;2.00;99.90;;;;;;4975480;28;20389;-57
2024/01/07 06:13:36;;;;;;;24.08;12.73;;;2.00;99.90;;;;;;4975297;28;20082;-51
2024/01/07 06:16:02;;;;;;;23.80;12.18;;;2.10;99.90;;;;;;4975170;28;20026;-53
2024/01/07 06:18:28;;;;;;;21.10;12.20;;;2.00;99.90;;;;;;4975072;28;20045;-54
2024/01/07 06:20:53;;;;;;;25.27;13.05;;;2.00;99.90;;;;;;4973801;28;20110;-55
2024/01/07 06:23:19;;;;;;;22.55;11.57;;;2.00;99.90;;;;;;4975009;28;20087;-51
2024/01/07 06:25:44;;;;;;;23.15;11.60;;;2.00;99.90;;;;;;4973826;28;20027;-53
2024/01/07 06:28:10;;;;;;;22.90;11.25;;;2.00;99.90;;;;;;4974832;28;20084;-55
2024/01/07 06:30:36;;;;;;;24.15;12.65;;;2.00;99.90;;;;;;4975067;28;20480;-53
2024/01/07 06:33:02;;;;;;;23.98;12.23;;;2.00;99.90;;;;;;4974919;28;20030;-54
2024/01/07 06:35:27;;;;;;;23.08;11.27;;;2.00;99.90;;;;;;4974267;28;20556;-50
2024/01/07 06:37:53;;;;;;;25.50;11.75;;;2.00;99.90;;;;;;4974796;28;20118;-55
2024/01/07 06:40:19;;;;;;;24.13;12.23;;;2.00;99.90;;;;;;4974840;28;20023;-55
2024/01/07 06:42:45;;;;;;;26.95;11.90;;;1.90;99.90;;;;;;4974562;28;20034;-51
2024/01/07 06:45:11;;;;;;;21.73;11.00;;;1.90;99.90;;;;;;4974695;28;20035;-53
2024/01/07 06:47:36;;;;;;;32.38;13.32;;;1.90;99.90;;;;;;4974822;28;20034;-54
2024/01/07 06:50:02;;;;;;;25.95;12.05;;;1.90;99.90;;;;;;4974358;28;20105;-52
2024/01/07 06:52:28;;;;;;;24.40;11.73;;;1.80;99.90;;;;;;4974310;28;20461;-57
2024/01/07 06:54:53;;;;;;;27.45;12.05;;;1.90;99.90;;;;;;4974429;28;20039;-55
2024/01/07 06:57:19;;;;;;;24.63;12.15;;;1.90;99.90;;;;;;4974184;28;20026;-57
2024/01/07 06:59:44;;;;;;;28.50;12.82;;;1.90;99.90;;;;;;4974442;28;20042;-53
2024/01/07 07:02:10;;;;;;;24.83;11.85;;;1.80;99.90;;;;;;4973415;28;20592;-51
2024/01/07 07:04:36;;;;;;;24.83;11.65;;;1.80;99.90;;;;;;4963144;28;20031;-55
2024/01/07 07:07:02;;;;;;;23.95;12.43;;;1.80;99.90;;;;;;4974240;28;20477;-55
2024/01/07 07:09:27;;;;;;;25.63;11.38;;;1.80;99.90;;;;;;4973996;28;20098;-54
2024/01/07 07:11:53;;;;;;;22.33;11.25;;;1.80;99.90;;;;;;4973939;28;20030;-56
2024/01/07 07:14:19;;;;;;;23.75;11.68;;;1.90;99.90;;;;;;4955754;28;20027;-52
2024/01/07 07:16:44;;;;;;;22.95;10.57;;;1.80;99.90;;;;;;4954627;29;20027;-53
2024/01/07 07:19:14;;;;;;;24.92;11.13;;;1.80;99.90;;;;;;4954631;29;20055;-55
2024/01/07 07:21:40;;;;;;;22.15;10.32;;;1.80;99.90;;;;;;4954431;28;20042;-53
2024/01/07 07:24:06;;;;;;;22.67;12.13;;;1.80;99.90;;;;;;4964430;28;20019;-54
2024/01/07 07:26:32;;;;;;;21.92;10.68;;;1.80;99.90;;;;;;4972443;28;20030;-56
2024/01/07 07:28:57;;;;;;;24.73;11.00;;;1.70;99.90;;;;;;4972891;28;20432;-56
2024/01/07 07:31:23;;;;;;;22.13;10.70;;;1.70;99.90;;;;;;4971652;28;20636;-56
2024/01/07 07:33:48;;;;;;;23.55;11.60;;;1.80;99.90;;;;;;4972114;28;20038;-57
2024/01/07 07:36:15;;;;;;;28.30;10.90;;;1.80;99.90;;;;;;4967029;28;20077;-57
2024/01/07 07:38:40;;;;;;;19.33;9.73;;;1.90;99.90;;;;;;4972859;28;20042;-57
2024/01/07 07:41:07;;;;;;;20.95;10.75;;;1.80;99.90;;;;;;4971865;28;20039;-57
2024/01/07 07:43:33;;;;;;;22.45;10.32;;;1.90;99.90;;;;;;4972516;28;20186;-56
2024/01/07 07:46:00;;;;;;;13.85;8.65;;;1.90;99.90;;;;;;4972949;28;20105;-56
2024/01/07 07:48:26;;;;;;;17.85;9.50;;;1.90;99.90;;;;;;4972068;28;20346;-54
2024/01/07 07:50:51;;;;;;;17.25;8.18;;;1.90;99.90;;;;;;4972290;28;20070;-55
2024/01/07 07:53:18;;;;;;;18.88;9.82;;;2.00;99.90;;;;;;4963395;28;20035;-55
2024/01/07 07:55:44;;;;;;;19.67;9.70;;;2.00;99.90;;;;;;4965516;28;20042;-58
2024/01/07 07:58:09;;;;;;;17.65;9.38;;;2.00;99.90;;;;;;4967873;28;20027;-56
2024/01/07 08:00:35;;;;;;;18.67;10.27;;;2.00;99.90;;;;;;4963545;28;20066;-57
2024/01/07 08:03:01;;;;;;;19.95;8.80;;;1.90;99.90;;;;;;4964685;28;20039;-54
2024/01/07 08:05:26;;;;;;;14.98;8.10;;;1.90;99.90;;;;;;4969063;28;20486;-58
2024/01/07 08:07:52;;;;;;;15.27;8.38;;;2.00;99.90;;;;;;4968827;28;20035;-57
2024/01/07 08:10:17;;;;;;;16.42;9.38;;;2.00;99.90;;;;;;4967430;28;20050;-54
2024/01/07 08:12:43;;;;;;;18.80;8.60;;;2.00;99.90;;;;;;4962695;28;20027;-57
2024/01/07 08:15:09;;;;;;;16.90;8.27;;;2.00;99.90;;;;;;4963076;28;20023;-56
2024/01/07 08:17:34;;;;;;;21.40;9.65;;;2.00;99.90;;;;;;4959855;28;20023;-56
2024/01/07 08:20:01;;;;;;;17.58;9.57;;;2.10;99.90;;;;;;4970387;28;20037;-57
2024/01/07 08:22:26;;;;;;;21.20;8.98;;;2.10;99.90;;;;;;4970547;28;20031;-57
2024/01/07 08:24:53;;;;;;;16.20;9.25;;;2.10;99.90;;;;;;4971980;28;20035;-54
2024/01/07 08:27:19;;;;;;;18.00;9.68;;;2.10;99.90;;;;;;4963795;28;20023;-56
2024/01/07 08:29:45;;;;;;;26.00;10.60;;;2.10;99.90;;;;;;4955641;28;20111;-56
2024/01/07 08:32:12;;;;;;;40.63;16.98;;;2.10;99.90;;;;;;4962301;28;20370;-56
2024/01/07 08:34:38;;;;;;;23.20;11.35;;;2.10;99.90;;;;;;4955607;28;20020;-57
2024/01/07 08:37:04;;;;;;;18.30;9.88;;;2.10;99.90;;;;;;4967619;28;20046;-55
2024/01/07 08:39:29;;;;;;;19.88;9.82;;;2.10;99.90;;;;;;4971234;28;20480;-56
2024/01/07 08:41:55;;;;;;;18.48;9.18;;;2.00;99.90;;;;;;4963521;28;20114;-56
2024/01/07 08:44:21;;;;;;;17.20;9.43;;;2.00;99.90;;;;;;4955321;28;20173;-57
2024/01/07 08:46:46;;;;;;;19.20;10.18;;;2.10;99.90;;;;;;4959770;28;20073;-57
2024/01/07 08:49:13;;;;;;;22.38;10.80;;;2.10;99.90;;;;;;4963220;28;20030;-57
2024/01/07 08:51:39;;;;;;;20.85;10.25;;;2.10;99.90;;;;;;4955538;28;20466;-54
2024/01/07 08:54:05;;;;;;;22.65;11.43;;;2.10;99.90;;;;;;4963855;28;20034;-56
2024/01/07 08:56:30;;;;;;;22.23;10.70;;;2.00;99.90;;;;;;4959748;28;20039;-56
2024/01/07 08:58:56;;;;;;;23.92;10.75;;;2.00;99.90;;;;;;4961816;28;20039;-57
2024/01/07 09:01:21;;;;;;;20.95;10.38;;;2.00;99.90;;;;;;4959463;28;20034;-58
2024/01/07 09:03:47;;;;;;;23.33;10.75;;;2.00;99.90;;;;;;4965695;28;20039;-58
2024/01/07 09:06:12;;;;;;;24.52;11.07;;;2.00;99.90;;;;;;4959215;28;20031;-56
2024/01/07 09:08:38;;;;;;;21.13;10.55;;;2.10;99.90;;;;;;4964545;28;20070;-57
2024/01/07 09:11:05;;;;;;;26.83;12.30;;;2.10;99.90;;;;;;4965724;28;20390;-57
2024/01/07 09:13:31;;;;;;;21.45;11.13;;;2.10;99.90;;;;;;4959874;28;20028;-57
2024/01/07 09:15:57;;;;;;;20.98;10.85;;;2.00;99.90;;;;;;4961078;28;20027;-56
2024/01/07 09:18:23;;;;;;;25.95;12.80;;;2.00;99.90;;;;;;4963083;28;20110;-57
2024/01/07 09:20:48;;;;;;;22.02;10.88;;;1.90;99.90;;;;;;4960268;28;20027;-58
2024/01/07 09:23:15;;;;;;;25.58;11.13;;;1.90;99.90;;;;;;4962954;28;20031;-57
2024/01/07 09:25:41;;;;;;;24.58;11.00;;;2.00;99.90;;;;;;4959310;28;20035;-57
2024/01/07 09:28:07;;;;;;;22.27;11.57;;;1.90;99.90;;;;;;4960703;28;20035;-55
2024/01/07 09:30:32;;;;;;;27.42;11.43;;;1.90;99.90;;;;;;4956230;28;20114;-56
2024/01/07 09:32:58;;;;;;;25.63;12.93;;;1.90;99.90;;;;;;4961487;28;20103;-57
2024/01/07 09:35:23;;;;;;;21.95;10.68;;;1.90;99.90;;;;;;4964346;28;20493;-57
2024/01/07 09:37:49;;;;;;;23.85;10.20;;;2.00;99.90;;;;;;4969501;28;20662;-56
2024/01/07 09:40:19;;;;;;;24.23;10.82;;;2.00;99.90;;;;;;4963238;28;20724;-54
2024/01/07 09:42:45;;;;;;;25.63;11.55;;;2.00;99.90;;;;;;4959231;28;20436;-58
2024/01/07 09:45:13;;;;;;;27.23;12.52;;;2.00;99.90;;;;;;4958537;28;20023;-57
2024/01/07 09:47:40;;;;;;;24.88;11.75;;;2.00;99.90;;;;;;4963854;28;20541;-57
2024/01/07 09:50:09;;;;;;;20.88;11.20;;;2.10;99.90;;;;;;4964680;28;20525;-56
2024/01/07 09:52:35;;;;;;;22.75;11.50;;;2.10;99.90;;;;;;4965380;28;20039;-57
2024/01/07 09:55:03;;;;;;;22.33;11.27;;;2.10;99.90;;;;;;4962039;28;20034;-57
2024/01/07 09:57:30;;;;;;;21.27;10.50;;;2.10;99.90;;;;;;4962645;28;20030;-57
2024/01/07 09:59:55;;;;;;;26.02;11.75;;;2.10;99.90;;;;;;4962319;28;20505;-56
2024/01/07 10:02:23;;;;;;;22.23;10.40;;;2.10;99.90;;;;;;4958515;28;20119;-57
2024/01/07 10:04:50;;;;;;;22.27;10.68;;;2.10;99.90;;;;;;4956200;28;20027;-58
2024/01/07 10:07:15;;;;;;;23.40;10.13;;;2.10;99.90;;;;;;4959827;28;20453;-58
2024/01/07 10:09:44;;;;;;;23.40;10.70;;;2.20;99.90;;;;;;4961638;28;20027;-55
2024/01/07 10:12:10;;;;;;;17.08;9.18;;;2.10;99.90;;;;;;4964105;28;20027;-56
2024/01/07 10:14:35;;;;;;;18.77;8.98;;;2.10;99.90;;;;;;4965232;28;20027;-56
2024/01/07 10:17:01;;;;;;;14.35;7.88;;;2.00;99.90;;;;;;4960529;28;20039;-57
2024/01/07 10:19:27;;;;;;;17.60;8.93;;;1.90;99.90;;;;;;4972825;28;20042;-56
2024/01/07 10:22:03;;;;;;;16.55;8.07;;;1.80;99.90;;;;;;4958454;28;20054;-57
2024/01/07 10:24:37;;;;;;;16.35;7.72;;;1.80;99.90;;;;;;4961799;28;20039;-55
2024/01/07 10:27:03;;;;;;;14.32;7.85;;;1.80;99.90;;;;;;4960682;28;20504;-56
2024/01/07 10:29:29;;;;;;;14.50;8.07;;;1.80;99.90;;;;;;4962495;28;20046;-57
2024/01/07 10:31:58;;;;;;;14.27;7.50;;;1.90;99.90;;;;;;4959689;28;20031;-57
2024/01/07 10:34:24;;;;;;;14.13;8.88;;;1.80;99.90;;;;;;4962114;28;20038;-56
2024/01/07 10:36:54;;;;;;;12.85;7.63;;;1.90;99.90;;;;;;4964021;28;20026;-57
2024/01/07 10:39:20;;;;;;;15.50;8.98;;;1.80;99.90;;;;;;4962786;28;20394;-56
2024/01/07 10:41:47;;;;;;;15.18;7.18;;;1.90;99.90;;;;;;4963326;28;20509;-56
2024/01/07 10:44:13;;;;;;;13.80;7.38;;;1.80;99.90;;;;;;4962348;28;20030;-57
2024/01/07 10:46:40;;;;;;;16.83;8.45;;;1.90;99.90;;;;;;4959315;28;20084;-57
2024/01/07 10:49:18;;;;;;;16.88;8.32;;;1.90;99.90;;;;;;4966335;28;20539;-57
2024/01/07 10:51:45;;;;;;;14.35;8.32;;;1.90;99.90;;;;;;4958806;28;20046;-56
2024/01/07 10:54:13;;;;;;;14.82;8.68;;;2.00;99.90;;;;;;4966217;28;20093;-57
2024/01/07 10:56:45;;;;;;;14.73;8.70;;;1.90;99.90;;;;;;4961552;28;20367;-58
2024/01/07 10:59:10;;;;;;;16.65;9.07;;;2.00;99.90;;;;;;4961992;28;20098;-54
2024/01/07 11:01:37;;;;;;;18.38;9.18;;;2.00;99.90;;;;;;4965550;28;20102;-55
2024/01/07 11:04:15;;;;;;;18.33;9.50;;;2.10;99.90;;;;;;4962761;28;20031;-57
2024/01/07 11:06:55;;;;;;;18.63;8.68;;;2.20;99.90;;;;;;4962061;28;20210;-56
2024/01/07 11:09:37;;;;;;;13.82;8.80;;;2.10;99.90;;;;;;4963190;28;20041;-53
2024/01/07 11:12:04;;;;;;;19.35;10.10;;;2.10;99.90;;;;;;4964662;28;20031;-55
2024/01/07 11:14:44;;;;;;;15.38;8.75;;;2.10;99.90;;;;;;4962483;28;20114;-55
2024/01/07 11:17:10;;;;;;;18.00;9.80;;;2.10;99.90;;;;;;4961719;28;20039;-57
2024/01/07 11:19:36;;;;;;;18.42;10.13;;;2.10;99.90;;;;;;4964387;28;20448;-57
2024/01/07 11:22:24;;;;;;;18.13;10.00;;;2.20;99.90;;;;;;4961454;28;20059;-58
2024/01/07 11:24:57;;;;;;;18.80;10.57;;;2.30;99.90;;;;;;4964845;28;20470;-55
2024/01/07 11:27:24;;;;;;;20.13;10.98;;;2.30;99.90;;;;;;4967293;28;20125;-56
2024/01/07 11:29:54;;;;;;;19.05;10.05;;;2.40;99.90;;;;;;4960455;28;20058;-56
2024/01/07 11:32:28;;;;;;;19.42;9.43;;;2.50;99.90;;;;;;4967751;28;20083;-57
2024/01/07 11:34:56;;;;;;;20.73;8.82;;;2.50;99.90;;;;;;4964817;28;20019;-56
2024/01/07 11:37:22;;;;;;;17.42;9.65;;;2.30;99.90;;;;;;4968480;28;20027;-56
2024/01/07 11:39:51;;;;;;;17.20;8.98;;;2.30;99.90;;;;;;4960707;28;20034;-57
2024/01/07 11:42:17;;;;;;;16.13;9.60;;;2.20;99.90;;;;;;4963691;28;20401;-56
2024/01/07 11:44:48;;;;;;;18.10;9.40;;;2.20;99.90;;;;;;4961398;28;20081;-56
2024/01/07 11:47:17;;;;;;;20.63;10.23;;;2.10;99.90;;;;;;4962712;28;20027;-57
2024/01/07 11:49:44;;;;;;;21.73;10.02;;;2.10;99.90;;;;;;4963622;28;20108;-54
2024/01/07 11:52:12;;;;;;;20.50;10.38;;;2.10;99.90;;;;;;4963824;28;20023;-56
2024/01/07 11:54:39;;;;;;;18.58;9.07;;;2.10;99.90;;;;;;4962857;28;20077;-57
2024/01/07 11:57:06;;;;;;;17.08;8.55;;;2.20;99.90;;;;;;4967764;28;20091;-57
2024/01/07 11:59:32;;;;;;;15.00;8.68;;;2.10;99.90;;;;;;4967809;28;20023;-56
2024/01/07 12:02:00;;;;;;;13.40;7.57;;;2.00;99.90;;;;;;4966756;28;20039;-57
2024/01/07 12:04:25;;;;;;;12.98;7.85;;;1.90;99.90;;;;;;4958096;28;20035;-56
2024/01/07 12:06:51;;;;;;;18.63;10.60;;;1.90;99.90;;;;;;4961620;28;20035;-56
2024/01/07 12:09:17;;;;;;;24.55;10.90;;;1.90;99.90;;;;;;4963884;28;20054;-56
2024/01/07 12:11:44;;;;;;;13.20;8.05;;;1.90;99.90;;;;;;4962557;28;20035;-56
2024/01/07 12:14:10;;;;;;;17.75;7.93;;;1.90;99.90;;;;;;4963814;28;20482;-55
2024/01/07 12:16:36;;;;;;;23.48;9.02;;;1.90;99.90;;;;;;4963038;28;20066;-55
2024/01/07 12:19:02;;;;;;;14.40;7.80;;;1.90;99.90;;;;;;4965111;28;20031;-55
2024/01/07 12:21:29;;;;;;;15.68;8.32;;;1.80;99.90;;;;;;4964061;28;20485;-55
2024/01/07 12:23:56;;;;;;;14.55;8.18;;;1.80;99.90;;;;;;4963067;28;20059;-57
2024/01/07 12:26:26;;;;;;;19.45;8.57;;;1.70;99.90;;;;;;4968295;28;20035;-54
2024/01/07 12:28:59;;;;;;;13.85;6.93;;;1.70;99.90;;;;;;4963955;28;20388;-57
2024/01/07 12:31:26;;;;;;;14.10;8.80;;;1.70;99.90;;;;;;4967075;28;20536;-57
2024/01/07 12:33:53;;;;;;;18.52;8.63;;;1.70;99.90;;;;;;4962884;28;20394;-56
2024/01/07 12:36:21;;;;;;;13.23;8.07;;;1.70;99.90;;;;;;4970503;28;20066;-54
2024/01/07 12:38:47;;;;;;;18.63;9.88;;;1.70;99.90;;;;;;4967748;28;20374;-54